Los Angeles, California
Traffic Map
Current Weather Conditions
Los Angeles, California
Overcast
Overcast
16°
Feels Like: 16°
Wind Chill: 16° Ceiling: 1600
Heat Index: 16° Visibility: 7mi
Dew Point: 12° Wind: 0mph
Humidity: 80% Direction: ° ()
Pressure: 29.98in Gusts: 0mph
Raw Report DataKCQT 271047Z AUTO 00000KT 7SM OVC016 16/12 A2998 RMK AO2 SLP152 T01560122
Traffic Incident Summary
Active as of:
Severity:
Category:
InformationThere was an issue retrieving the traffic information for this location. Please try a different location or try again shortly.
Advertisements
Track Severe Weather on mobile